createdAt,value
2018-05-21T00:02:12.350Z,20.47
2018-05-21T00:04:39.097Z,20.45
2018-05-21T00:07:05.912Z,20.43
2018-05-21T00:09:31.737Z,20.40
2018-05-21T00:11:57.549Z,20.42
2018-05-21T00:14:23.496Z,20.44
2018-05-21T00:16:49.478Z,20.37
2018-05-21T00:19:15.394Z,20.52
2018-05-21T00:21:42.214Z,20.50
2018-05-21T00:24:09.054Z,20.43
2018-05-21T00:26:34.928Z,20.42
2018-05-21T00:29:00.963Z,20.45
2018-05-21T00:31:26.774Z,20.51
2018-05-21T00:33:54.132Z,20.46
2018-05-21T00:36:20.033Z,20.35
2018-05-21T00:38:46.029Z,20.41
2018-05-21T00:41:11.913Z,20.44
2018-05-21T00:43:38.594Z,20.46
2018-05-21T00:46:04.457Z,20.44
2018-05-21T00:48:31.200Z,20.39
2018-05-21T00:51:00.128Z,20.38
2018-05-21T00:53:25.981Z,20.36
2018-05-21T00:55:51.796Z,20.45
2018-05-21T00:58:17.827Z,20.45
2018-05-21T01:00:43.721Z,20.51
2018-05-21T01:03:09.576Z,20.39
2018-05-21T01:05:35.380Z,20.50
2018-05-21T01:08:02.441Z,20.43
2018-05-21T01:10:28.248Z,20.43
2018-05-21T01:12:54.097Z,20.46
2018-05-21T01:15:19.916Z,20.40
2018-05-21T01:17:46.085Z,20.32
2018-05-21T01:20:11.894Z,20.36
2018-05-21T01:22:37.808Z,20.40
2018-05-21T01:25:03.616Z,20.37
2018-05-21T01:27:29.492Z,20.36
2018-05-21T01:29:55.297Z,20.35
2018-05-21T01:32:21.269Z,20.35
2018-05-21T01:34:47.276Z,20.40
2018-05-21T01:37:13.090Z,20.41
2018-05-21T01:39:38.960Z,20.38
2018-05-21T01:42:08.952Z,20.32
2018-05-21T01:44:35.704Z,20.28
2018-05-21T01:47:01.575Z,20.39
2018-05-21T01:49:27.388Z,20.36
2018-05-21T01:51:53.233Z,20.36
2018-05-21T01:54:19.045Z,20.31
2018-05-21T01:56:45.771Z,20.35
2018-05-21T01:59:12.569Z,20.44
2018-05-21T02:01:39.220Z,20.42
2018-05-21T02:04:05.228Z,20.38
2018-05-21T02:06:31.033Z,20.37
2018-05-21T02:08:57.929Z,20.34
2018-05-21T02:11:23.740Z,20.32
2018-05-21T02:13:50.472Z,20.38
2018-05-21T02:16:17.196Z,20.27
2018-05-21T02:18:43.132Z,20.37
2018-05-21T02:21:16.857Z,20.44
2018-05-21T02:23:42.964Z,20.35
2018-05-21T02:26:08.853Z,20.38
2018-05-21T02:28:34.696Z,20.39
2018-05-21T02:31:00.833Z,20.42
2018-05-21T02:33:27.610Z,20.39
2018-05-21T02:35:53.452Z,20.33
2018-05-21T02:38:20.369Z,20.42
2018-05-21T02:40:47.157Z,20.44
2018-05-21T02:43:13.810Z,20.37
2018-05-21T02:45:41.296Z,20.27
2018-05-21T02:48:07.665Z,20.37
2018-05-21T02:50:33.469Z,20.35
2018-05-21T02:53:00.241Z,20.31
2018-05-21T02:55:27.156Z,20.34
2018-05-21T02:57:53.121Z,20.40
2018-05-21T03:00:19.009Z,20.45
2018-05-21T03:02:44.820Z,20.36
2018-05-21T03:05:13.452Z,20.32
2018-05-21T03:07:39.265Z,20.23
2018-05-21T03:10:08.746Z,20.29
2018-05-21T03:12:34.888Z,20.29
2018-05-21T03:15:00.688Z,20.32
2018-05-21T03:17:26.493Z,20.39
2018-05-21T03:19:52.296Z,20.34
2018-05-21T03:22:18.821Z,20.35
2018-05-21T03:24:44.726Z,20.34
2018-05-21T03:27:10.533Z,20.29
2018-05-21T03:29:36.339Z,20.29
2018-05-21T03:32:02.986Z,20.38
2018-05-21T03:34:29.756Z,20.30
2018-05-21T03:36:55.561Z,20.33
2018-05-21T03:39:21.852Z,20.36
2018-05-21T03:41:47.729Z,20.34
2018-05-21T03:44:13.532Z,20.24
2018-05-21T03:46:39.332Z,20.35
2018-05-21T03:49:05.256Z,20.32
2018-05-21T03:51:31.820Z,20.32
2018-05-21T03:53:57.625Z,20.21
2018-05-21T03:56:23.480Z,20.31
2018-05-21T03:58:55.556Z,20.25
2018-05-21T04:01:27.436Z,20.22
2018-05-21T04:03:54.629Z,20.29
2018-05-21T04:06:20.440Z,20.33
2018-05-21T04:08:46.248Z,20.43
2018-05-21T04:11:12.680Z,20.45
2018-05-21T04:13:38.584Z,20.44
2018-05-21T04:16:04.884Z,20.50
2018-05-21T04:18:31.488Z,20.63
2018-05-21T04:20:57.429Z,20.67
2018-05-21T04:23:23.299Z,20.66
2018-05-21T04:25:49.109Z,20.69
2018-05-21T04:28:14.917Z,20.73
2018-05-21T04:30:40.723Z,20.68
2018-05-21T04:33:06.528Z,20.75
2018-05-21T04:35:32.486Z,20.77
2018-05-21T04:37:58.569Z,20.71
2018-05-21T04:40:24.484Z,20.69
2018-05-21T04:42:50.293Z,20.70
2018-05-21T04:45:20.641Z,20.66
2018-05-21T04:47:51.275Z,20.63
2018-05-21T04:50:17.187Z,20.69
2018-05-21T04:52:42.992Z,20.65
2018-05-21T04:55:10.945Z,20.65
2018-05-21T04:57:36.852Z,20.63
2018-05-21T05:00:02.686Z,20.75
2018-05-21T05:02:28.494Z,20.63
2018-05-21T05:04:54.749Z,20.68
2018-05-21T05:07:20.604Z,20.70
2018-05-21T05:09:46.461Z,20.71
2018-05-21T05:12:13.084Z,20.74
2018-05-21T05:14:38.992Z,20.74
2018-05-21T05:17:06.568Z,20.81
2018-05-21T05:19:32.435Z,20.80
2018-05-21T05:21:58.309Z,20.75
2018-05-21T05:24:25.652Z,20.82
2018-05-21T05:26:52.119Z,20.74
2018-05-21T05:29:19.226Z,20.84
2018-05-21T05:31:45.134Z,20.88
2018-05-21T05:34:11.066Z,20.86
2018-05-21T05:36:37.083Z,20.78
2018-05-21T05:39:04.222Z,20.87
2018-05-21T05:41:31.041Z,20.87
2018-05-21T05:43:57.896Z,20.88
2018-05-21T05:46:24.596Z,20.88
2018-05-21T05:48:50.466Z,20.94
2018-05-21T05:51:17.264Z,20.98
2018-05-21T05:53:43.081Z,21.04
2018-05-21T05:56:08.893Z,20.95
2018-05-21T05:58:34.765Z,21.02
2018-05-21T06:01:02.662Z,21.02
2018-05-21T06:03:28.489Z,21.07
2018-05-21T06:05:54.369Z,21.10
2018-05-21T06:08:20.868Z,21.07
2018-05-21T06:10:46.689Z,21.11
2018-05-21T06:13:12.505Z,21.12
2018-05-21T06:15:38.389Z,21.13
2018-05-21T06:18:04.277Z,21.19
2018-05-21T06:20:30.501Z,21.14
2018-05-21T06:22:56.301Z,21.13
2018-05-21T06:25:23.276Z,21.16
2018-05-21T06:27:49.126Z,21.10
2018-05-21T06:30:15.004Z,21.13
2018-05-21T06:32:40.860Z,21.11
2018-05-21T06:35:07.548Z,21.03
2018-05-21T06:37:34.035Z,21.01
2018-05-21T06:39:59.893Z,21.15
2018-05-21T06:42:25.700Z,21.11
2018-05-21T06:44:51.526Z,21.17
2018-05-21T06:47:17.336Z,21.13
2018-05-21T06:49:43.145Z,21.17
2018-05-21T06:52:08.962Z,21.15
2018-05-21T06:54:35.666Z,21.19
2018-05-21T06:57:02.411Z,21.19
2018-05-21T06:59:28.565Z,21.19
2018-05-21T07:01:54.673Z,21.21
2018-05-21T07:04:20.476Z,21.22
2018-05-21T07:06:46.301Z,21.14
2018-05-21T07:09:12.122Z,21.22
2018-05-21T07:11:38.398Z,21.22
2018-05-21T07:14:04.256Z,21.18
2018-05-21T07:16:30.162Z,21.21
2018-05-21T07:18:56.006Z,21.14
2018-05-21T07:21:21.872Z,21.19
2018-05-21T07:23:47.724Z,21.14
2018-05-21T07:26:13.529Z,21.17
2018-05-21T07:28:40.314Z,21.16
2018-05-21T07:31:06.118Z,21.18
2018-05-21T07:33:32.220Z,21.20
2018-05-21T07:35:58.950Z,21.15
2018-05-21T07:38:24.793Z,21.18
2018-05-21T07:40:51.820Z,21.19
2018-05-21T07:43:18.644Z,21.16
2018-05-21T07:45:44.900Z,21.16
2018-05-21T07:48:10.715Z,21.17
2018-05-21T07:50:37.608Z,21.18
2018-05-21T07:53:03.427Z,21.17
2018-05-21T07:55:29.329Z,21.17
2018-05-21T07:57:56.098Z,21.20
2018-05-21T08:00:22.629Z,21.20
2018-05-21T08:02:48.443Z,21.20
2018-05-21T08:05:15.242Z,21.17
2018-05-21T08:07:41.822Z,21.14
2018-05-21T08:10:08.629Z,21.19
2018-05-21T08:12:34.532Z,21.18
2018-05-21T08:15:00.364Z,21.18
2018-05-21T08:17:26.478Z,21.18
2018-05-21T08:19:52.600Z,21.13
2018-05-21T08:22:18.604Z,21.15
2018-05-21T08:24:45.217Z,21.15
2018-05-21T08:27:11.218Z,21.18
2018-05-21T08:29:37.185Z,21.12
2018-05-21T08:32:03.129Z,21.15
2018-05-21T08:34:29.966Z,21.15
2018-05-21T08:36:56.904Z,21.10
2018-05-21T08:39:22.758Z,21.16
2018-05-21T08:41:48.573Z,21.14
2018-05-21T08:44:14.473Z,21.16
2018-05-21T08:46:40.482Z,21.10
2018-05-21T08:49:07.117Z,21.16
2018-05-21T08:51:32.938Z,21.10
2018-05-21T08:53:59.842Z,21.19
2018-05-21T08:56:25.644Z,20.90
2018-05-21T08:58:51.509Z,21.14
2018-05-21T09:01:17.294Z,21.13
2018-05-21T09:03:43.100Z,21.17
2018-05-21T09:06:09.902Z,21.14
2018-05-21T09:08:35.709Z,21.16
2018-05-21T09:11:01.659Z,21.17
2018-05-21T09:13:27.465Z,21.17
2018-05-21T09:15:53.440Z,21.10
2018-05-21T09:18:19.545Z,21.20
2018-05-21T09:20:45.349Z,21.20
2018-05-21T09:23:11.156Z,21.15
2018-05-21T09:25:36.965Z,21.21
2018-05-21T09:28:02.778Z,21.14
2018-05-21T09:30:28.580Z,21.18
2018-05-21T09:32:54.385Z,21.14
2018-05-21T09:35:20.246Z,21.17
2018-05-21T09:37:46.052Z,21.15
2018-05-21T09:40:11.956Z,21.22
2018-05-21T09:42:37.806Z,21.15
2018-05-21T09:45:04.665Z,21.16
2018-05-21T09:47:30.547Z,21.17
2018-05-21T09:49:56.398Z,21.16
2018-05-21T09:52:22.215Z,21.17
2018-05-21T09:54:48.139Z,21.16
2018-05-21T09:57:13.935Z,21.12
2018-05-21T09:59:41.590Z,21.24
2018-05-21T10:02:07.400Z,21.19
2018-05-21T10:04:33.204Z,21.04
2018-05-21T10:06:59.020Z,21.27
2018-05-21T10:09:25.889Z,21.20
2018-05-21T10:11:51.719Z,21.18
2018-05-21T10:14:17.527Z,21.15
2018-05-21T10:16:43.336Z,21.08
2018-05-21T10:19:10.264Z,21.11
2018-05-21T10:21:36.394Z,21.12
2018-05-21T10:24:02.322Z,21.09
2018-05-21T10:26:28.198Z,21.11
2018-05-21T10:28:54.090Z,21.11
2018-05-21T10:31:19.944Z,21.09
2018-05-21T10:33:45.969Z,21.12
2018-05-21T10:36:11.772Z,21.10
2018-05-21T10:38:37.584Z,21.07
2018-05-21T10:41:03.413Z,21.09
2018-05-21T10:43:29.252Z,21.06
2018-05-21T10:45:55.090Z,21.09
2018-05-21T10:48:20.892Z,21.10
2018-05-21T10:50:47.704Z,21.03
2018-05-21T10:53:13.684Z,21.03
2018-05-21T10:55:39.490Z,21.08
2018-05-21T10:58:05.332Z,21.09
2018-05-21T11:00:31.163Z,21.05
2018-05-21T11:02:56.969Z,21.04
2018-05-21T11:05:23.565Z,21.08
2018-05-21T11:07:50.264Z,21.05
2018-05-21T11:10:16.113Z,21.00
2018-05-21T11:12:41.915Z,21.04
2018-05-21T11:15:08.798Z,20.99
2018-05-21T11:17:34.649Z,21.05
2018-05-21T11:20:01.033Z,20.98
2018-05-21T11:22:26.976Z,20.93
2018-05-21T11:24:52.820Z,21.08
2018-05-21T11:27:18.629Z,21.03
2018-05-21T11:29:44.501Z,21.02
2018-05-21T11:32:10.313Z,21.02
2018-05-21T11:34:36.275Z,21.01
2018-05-21T11:37:02.933Z,21.03
2018-05-21T11:39:29.824Z,21.00
2018-05-21T11:41:56.549Z,20.98
2018-05-21T11:44:22.360Z,21.04
2018-05-21T11:46:48.174Z,21.03
2018-05-21T11:49:14.042Z,20.99
2018-05-21T11:51:39.908Z,21.02
2018-05-21T11:54:06.608Z,20.99
2018-05-21T11:56:33.296Z,20.96
2018-05-21T11:58:59.140Z,20.96
2018-05-21T12:01:24.966Z,20.99
2018-05-21T12:03:51.746Z,20.95
2018-05-21T12:06:18.648Z,20.89
2018-05-21T12:08:45.309Z,20.93
2018-05-21T12:11:11.110Z,20.97
2018-05-21T12:13:38.004Z,21.04
2018-05-21T12:16:03.729Z,21.14
2018-05-21T12:18:30.521Z,21.29
2018-05-21T12:20:56.389Z,21.36
2018-05-21T12:23:23.036Z,21.42
2018-05-21T12:25:50.452Z,21.51
2018-05-21T12:28:16.266Z,21.56
2018-05-21T12:30:42.926Z,21.51
2018-05-21T12:33:09.717Z,21.60
2018-05-21T12:35:36.478Z,21.67
2018-05-21T12:38:02.396Z,21.69
2018-05-21T12:40:28.184Z,21.68
2018-05-21T12:42:54.037Z,21.69
2018-05-21T12:45:20.874Z,21.67
2018-05-21T12:47:46.708Z,21.68
2018-05-21T12:50:12.516Z,21.66
2018-05-21T12:52:38.624Z,21.61
2018-05-21T12:55:04.425Z,21.63
2018-05-21T12:57:30.248Z,21.64
2018-05-21T12:59:56.055Z,21.65
2018-05-21T13:02:21.874Z,21.67
2018-05-21T13:04:48.551Z,21.63
2018-05-21T13:07:15.300Z,21.64
2018-05-21T13:09:42.021Z,21.59
2018-05-21T13:12:07.825Z,21.58
2018-05-21T13:14:34.753Z,21.59
2018-05-21T13:17:00.566Z,21.56
2018-05-21T13:19:26.421Z,21.56
2018-05-21T13:21:53.272Z,21.56
2018-05-21T13:24:20.160Z,21.61
2018-05-21T13:26:46.834Z,21.59
2018-05-21T13:29:12.641Z,21.56
2018-05-21T13:31:38.572Z,21.55
2018-05-21T13:34:04.393Z,21.52
2018-05-21T13:36:30.196Z,21.58
2018-05-21T13:38:56.066Z,21.53
2018-05-21T13:41:21.968Z,21.47
2018-05-21T13:43:47.776Z,21.50
2018-05-21T13:46:13.585Z,21.50
2018-05-21T13:48:39.450Z,21.52
2018-05-21T13:51:06.254Z,21.54
2018-05-21T13:53:32.062Z,21.46
2018-05-21T13:55:57.868Z,21.47
2018-05-21T13:58:23.673Z,21.48
2018-05-21T14:00:49.482Z,21.50
2018-05-21T14:03:15.288Z,21.50
2018-05-21T14:05:41.215Z,21.49
2018-05-21T14:08:07.029Z,21.49
2018-05-21T14:10:32.903Z,21.47
2018-05-21T14:12:58.713Z,21.48
2018-05-21T14:18:10.061Z,21.31
2018-05-21T14:20:36.117Z,21.41
2018-05-21T14:23:01.921Z,21.44
2018-05-21T14:25:27.725Z,21.45
2018-05-21T14:27:53.588Z,21.43
2018-05-21T14:30:20.364Z,21.45
2018-05-21T14:32:46.164Z,21.42
2018-05-21T14:35:12.868Z,21.42
2018-05-21T14:37:38.714Z,21.43
2018-05-21T14:40:04.516Z,21.39
2018-05-21T14:42:31.402Z,21.41
2018-05-21T14:44:58.252Z,21.42
2018-05-21T14:47:24.094Z,21.36
2018-05-21T14:49:50.749Z,21.41
2018-05-21T14:52:17.577Z,21.43
2018-05-21T14:54:44.256Z,21.42
2018-05-21T14:57:11.068Z,21.43
2018-05-21T14:59:36.868Z,21.38
2018-05-21T15:02:02.771Z,21.40
2018-05-21T15:04:28.559Z,21.39
2018-05-21T15:06:54.361Z,21.40
2018-05-21T15:09:20.160Z,21.38
2018-05-21T15:11:45.994Z,21.40
2018-05-21T15:14:11.792Z,21.34
2018-05-21T15:16:37.648Z,21.37
2018-05-21T15:19:03.456Z,21.36
2018-05-21T15:21:29.256Z,21.36
2018-05-21T15:23:55.060Z,21.40
2018-05-21T15:26:20.862Z,21.40
2018-05-21T15:28:47.510Z,21.36
2018-05-21T15:31:13.321Z,21.37
2018-05-21T15:33:39.973Z,21.37
2018-05-21T15:36:05.860Z,21.38
2018-05-21T15:38:32.601Z,21.36
2018-05-21T15:40:58.431Z,21.38
2018-05-21T15:43:25.200Z,21.36
2018-05-21T15:45:51.979Z,21.35
2018-05-21T15:48:17.788Z,21.35
2018-05-21T15:50:43.585Z,21.34
2018-05-21T15:53:10.300Z,21.38
2018-05-21T15:55:37.073Z,21.33
2018-05-21T15:58:02.874Z,21.31
2018-05-21T16:00:28.676Z,21.32
2018-05-21T16:02:55.398Z,21.35
2018-05-21T16:05:22.224Z,21.37
2018-05-21T16:07:48.029Z,21.33
2018-05-21T16:10:13.828Z,21.27
2018-05-21T16:12:40.584Z,21.31
2018-05-21T16:15:06.429Z,21.32
2018-05-21T16:17:32.226Z,21.35
2018-05-21T16:19:58.196Z,21.34
2018-05-21T16:22:24.845Z,21.32
2018-05-21T16:24:50.644Z,21.32
2018-05-21T16:27:16.490Z,21.34
2018-05-21T16:29:42.287Z,21.22
2018-05-21T16:32:08.088Z,21.33
2018-05-21T16:34:33.888Z,21.33
2018-05-21T16:37:00.554Z,21.30
2018-05-21T16:39:27.345Z,21.28
2018-05-21T16:41:53.145Z,21.28
2018-05-21T16:44:18.945Z,21.27
2018-05-21T16:46:44.745Z,21.27
2018-05-21T16:49:10.545Z,21.27
2018-05-21T16:51:36.354Z,21.27
2018-05-21T16:54:02.163Z,21.26
2018-05-21T16:56:27.966Z,21.18
2018-05-21T16:58:53.771Z,21.17
2018-05-21T17:01:19.578Z,21.21
2018-05-21T17:03:45.448Z,21.18
2018-05-21T17:06:11.248Z,21.18
2018-05-21T17:08:37.188Z,21.16
2018-05-21T17:11:02.999Z,21.16
2018-05-21T17:13:28.828Z,21.17
2018-05-21T17:15:54.633Z,21.20
2018-05-21T17:18:20.464Z,21.15
2018-05-21T17:20:46.268Z,21.19
2018-05-21T17:23:12.180Z,21.19
2018-05-21T17:25:37.992Z,21.19
2018-05-21T17:28:03.807Z,21.09
2018-05-21T17:30:29.609Z,21.14
2018-05-21T17:32:55.488Z,21.16
2018-05-21T17:35:21.460Z,21.12
2018-05-21T17:37:47.240Z,21.16
2018-05-21T17:40:13.042Z,21.14
2018-05-21T17:42:38.884Z,21.09
2018-05-21T17:45:04.796Z,21.11
2018-05-21T17:47:30.642Z,21.14
2018-05-21T17:49:56.440Z,21.11
2018-05-21T17:52:22.246Z,21.17
2018-05-21T17:54:48.049Z,21.26
2018-05-21T17:57:13.849Z,21.35
2018-05-21T17:59:39.888Z,21.43
2018-05-21T18:02:05.688Z,21.51
2018-05-21T18:04:31.493Z,21.59
2018-05-21T18:06:57.296Z,21.66
2018-05-21T18:09:23.095Z,21.67
2018-05-21T18:11:48.935Z,21.71
2018-05-21T18:14:14.741Z,21.73
2018-05-21T18:16:40.559Z,21.76
2018-05-21T18:19:06.367Z,21.76
2018-05-21T18:21:32.336Z,21.77
2018-05-21T18:23:58.959Z,21.78
2018-05-21T18:26:24.820Z,21.77
2018-05-21T18:28:51.613Z,21.77
2018-05-21T18:31:17.526Z,21.76
2018-05-21T18:33:43.464Z,21.75
2018-05-21T18:36:09.265Z,21.74
2018-05-21T18:38:35.256Z,21.72
2018-05-21T18:41:01.360Z,21.74
2018-05-21T18:43:27.216Z,21.70
2018-05-21T18:45:55.402Z,21.70
2018-05-21T18:48:21.934Z,21.64
2018-05-21T18:50:48.161Z,21.68
2018-05-21T18:53:14.300Z,21.65
2018-05-21T18:55:40.329Z,21.64
2018-05-21T18:58:06.451Z,21.66
2018-05-21T19:00:32.460Z,21.64
2018-05-21T19:02:58.706Z,21.63
2018-05-21T19:05:25.118Z,21.61
2018-05-21T19:07:51.164Z,21.61
2018-05-21T19:10:17.292Z,21.60
2018-05-21T19:12:43.117Z,21.59
2018-05-21T19:15:10.022Z,21.59
2018-05-21T19:17:35.985Z,21.56
2018-05-21T19:20:02.941Z,21.56
2018-05-21T19:22:29.091Z,21.57
2018-05-21T19:24:55.248Z,21.56
2018-05-21T19:27:22.401Z,21.58
2018-05-21T19:29:48.458Z,21.54
2018-05-21T19:32:14.310Z,21.50
2018-05-21T19:34:40.303Z,21.55
2018-05-21T19:37:06.146Z,21.58
2018-05-21T19:39:31.962Z,21.61
2018-05-21T19:41:58.601Z,21.59
2018-05-21T19:44:24.504Z,21.55
2018-05-21T19:46:50.326Z,21.54
2018-05-21T19:49:16.350Z,21.57
2018-05-21T19:51:42.648Z,21.53
2018-05-21T19:54:08.505Z,21.54
2018-05-21T19:56:35.338Z,21.53
2018-05-21T19:59:01.368Z,21.51
2018-05-21T20:01:27.173Z,21.52
2018-05-21T20:03:52.981Z,21.48
2018-05-21T20:06:19.784Z,21.48
2018-05-21T20:08:46.574Z,21.50
2018-05-21T20:11:12.480Z,21.48
2018-05-21T20:13:38.378Z,21.50
2018-05-21T20:16:04.173Z,21.46
2018-05-21T20:18:32.853Z,21.47
2018-05-21T20:20:58.654Z,21.38
2018-05-21T20:23:24.965Z,21.39
2018-05-21T20:25:50.917Z,21.40
2018-05-21T20:28:16.845Z,21.40
2018-05-21T20:30:42.768Z,21.41
2018-05-21T20:33:08.682Z,21.40
2018-05-21T20:35:34.485Z,21.45
2018-05-21T20:38:00.289Z,21.41
2018-05-21T20:40:26.149Z,21.43
2018-05-21T20:42:51.923Z,21.45
2018-05-21T20:45:17.764Z,21.39
2018-05-21T20:47:44.661Z,21.36
2018-05-21T20:50:11.481Z,21.39
2018-05-21T20:52:38.188Z,21.38
2018-05-21T20:55:04.029Z,21.35
2018-05-21T20:57:30.841Z,21.31
2018-05-21T20:59:57.669Z,21.31
2018-05-21T21:02:23.545Z,21.32
2018-05-21T21:04:49.392Z,21.30
2018-05-21T21:07:15.189Z,21.33
2018-05-21T21:09:40.994Z,21.31
2018-05-21T21:12:06.801Z,21.29
2018-05-21T21:14:32.600Z,21.28
2018-05-21T21:16:58.397Z,21.21
2018-05-21T21:19:24.252Z,21.29
2018-05-21T21:21:50.094Z,21.24
2018-05-21T21:24:15.936Z,21.22
2018-05-21T21:26:42.594Z,21.26
2018-05-21T21:29:08.393Z,21.29
2018-05-21T21:31:34.228Z,21.22
2018-05-21T21:34:00.065Z,21.18
2018-05-21T21:36:25.869Z,21.20
2018-05-21T21:38:51.668Z,21.19
2018-05-21T21:41:17.504Z,21.19
2018-05-21T21:43:44.088Z,21.18
2018-05-21T21:46:09.889Z,21.20
2018-05-21T21:48:36.593Z,21.12
2018-05-21T21:51:03.369Z,21.07
2018-05-21T21:53:29.209Z,21.09
2018-05-21T21:55:55.008Z,21.06
2018-05-21T21:58:20.852Z,21.07
2018-05-21T22:00:46.693Z,21.08
2018-05-21T22:03:12.533Z,21.03
2018-05-21T22:05:38.328Z,21.02
2018-05-21T22:08:04.133Z,21.10
2018-05-21T22:10:29.931Z,21.05
2018-05-21T22:12:55.732Z,21.11
2018-05-21T22:15:21.533Z,20.99
2018-05-21T22:17:47.364Z,21.08
2018-05-21T22:20:13.168Z,21.04
2018-05-21T22:22:38.980Z,21.00
2018-05-21T22:25:04.825Z,21.00
2018-05-21T22:27:30.680Z,20.94
2018-05-21T22:29:56.571Z,20.99
2018-05-21T22:32:23.224Z,20.97
2018-05-21T22:34:49.026Z,21.01
2018-05-21T22:37:14.833Z,21.02
2018-05-21T22:39:40.664Z,21.04
2018-05-21T22:42:06.505Z,20.99
2018-05-21T22:44:38.515Z,21.05
2018-05-21T22:47:05.364Z,20.90
2018-05-21T22:49:30.160Z,20.93
2018-05-21T22:51:56.876Z,20.90
2018-05-21T22:54:28.940Z,20.91
2018-05-21T22:56:54.782Z,20.85
2018-05-21T22:59:20.585Z,20.86
2018-05-21T23:01:46.380Z,20.83
2018-05-21T23:04:12.180Z,20.90
2018-05-21T23:06:38.877Z,20.81
2018-05-21T23:09:04.675Z,20.84
2018-05-21T23:11:30.480Z,20.80
2018-05-21T23:13:57.110Z,20.81
2018-05-21T23:16:22.912Z,20.82
2018-05-21T23:18:48.714Z,20.82
2018-05-21T23:21:14.569Z,20.76
2018-05-21T23:23:40.404Z,20.82
2018-05-21T23:26:06.260Z,20.82
2018-05-21T23:28:32.065Z,20.85
2018-05-21T23:30:57.864Z,20.75
2018-05-21T23:33:23.705Z,20.79
2018-05-21T23:35:49.504Z,20.79
2018-05-21T23:38:15.304Z,20.76
2018-05-21T23:40:41.117Z,20.75
2018-05-21T23:43:06.920Z,20.74
2018-05-21T23:45:32.724Z,20.81
2018-05-21T23:47:58.700Z,20.81
2018-05-21T23:50:24.568Z,20.78
2018-05-21T23:52:50.448Z,20.77
2018-05-21T23:55:16.245Z,20.78
2018-05-21T23:57:42.054Z,20.76
